sensor_id;sensor_type;location;lat;lon;timestamp;P1;durP1;ratioP1;P2;durP2;ratioP2
22439;SDS011;11387;51.612;7.210;2022-08-03T00:01:34;7.25;;;3.40;;
22439;SDS011;11387;51.612;7.210;2022-08-03T00:04:36;14.23;;;3.92;;
22439;SDS011;11387;51.612;7.210;2022-08-03T00:07:39;7.68;;;3.85;;
22439;SDS011;11387;51.612;7.210;2022-08-03T00:10:42;7.80;;;3.40;;
22439;SDS011;11387;51.612;7.210;2022-08-03T00:13:46;8.00;;;3.20;;
22439;SDS011;11387;51.612;7.210;2022-08-03T00:16:49;8.60;;;3.67;;
22439;SDS011;11387;51.612;7.210;2022-08-03T00:19:52;6.22;;;3.28;;
22439;SDS011;11387;51.612;7.210;2022-08-03T00:22:54;8.20;;;3.10;;
22439;SDS011;11387;51.612;7.210;2022-08-03T00:25:57;5.72;;;3.47;;
22439;SDS011;11387;51.612;7.210;2022-08-03T00:29:01;7.63;;;3.25;;
22439;SDS011;11387;51.612;7.210;2022-08-03T00:32:04;5.97;;;3.10;;
22439;SDS011;11387;51.612;7.210;2022-08-03T00:35:11;8.00;;;3.53;;
22439;SDS011;11387;51.612;7.210;2022-08-03T00:38:33;5.13;;;3.33;;
22439;SDS011;11387;51.612;7.210;2022-08-03T00:41:36;6.03;;;3.10;;
22439;SDS011;11387;51.612;7.210;2022-08-03T00:44:40;6.88;;;3.20;;
22439;SDS011;11387;51.612;7.210;2022-08-03T00:47:43;6.50;;;3.30;;
22439;SDS011;11387;51.612;7.210;2022-08-03T00:50:46;6.78;;;3.30;;
22439;SDS011;11387;51.612;7.210;2022-08-03T00:53:52;11.32;;;3.13;;
22439;SDS011;11387;51.612;7.210;2022-08-03T00:56:55;9.38;;;2.83;;
22439;SDS011;11387;51.612;7.210;2022-08-03T01:00:02;6.40;;;3.53;;
22439;SDS011;11387;51.612;7.210;2022-08-03T01:03:05;6.13;;;3.05;;
22439;SDS011;11387;51.612;7.210;2022-08-03T01:06:10;5.38;;;2.92;;
22439;SDS011;11387;51.612;7.210;2022-08-03T01:09:15;8.70;;;3.15;;
22439;SDS011;11387;51.612;7.210;2022-08-03T01:12:21;5.65;;;2.90;;
22439;SDS011;11387;51.612;7.210;2022-08-03T01:15:31;12.00;;;3.53;;
22439;SDS011;11387;51.612;7.210;2022-08-03T01:18:37;10.27;;;3.00;;
22439;SDS011;11387;51.612;7.210;2022-08-03T01:21:44;5.38;;;2.90;;
22439;SDS011;11387;51.612;7.210;2022-08-03T01:24:53;10.68;;;3.33;;
22439;SDS011;11387;51.612;7.210;2022-08-03T01:28:02;7.22;;;2.90;;
22439;SDS011;11387;51.612;7.210;2022-08-03T01:31:16;8.20;;;3.15;;
22439;SDS011;11387;51.612;7.210;2022-08-03T01:34:20;6.72;;;2.55;;
22439;SDS011;11387;51.612;7.210;2022-08-03T01:37:25;12.17;;;3.30;;
22439;SDS011;11387;51.612;7.210;2022-08-03T01:40:29;6.10;;;2.75;;
22439;SDS011;11387;51.612;7.210;2022-08-03T01:43:33;4.30;;;2.50;;
22439;SDS011;11387;51.612;7.210;2022-08-03T01:46:58;6.10;;;2.63;;
22439;SDS011;11387;51.612;7.210;2022-08-03T01:50:02;3.60;;;2.53;;
22439;SDS011;11387;51.612;7.210;2022-08-03T01:53:05;6.63;;;2.60;;
22439;SDS011;11387;51.612;7.210;2022-08-03T01:56:09;6.45;;;3.22;;
22439;SDS011;11387;51.612;7.210;2022-08-03T01:59:12;8.27;;;3.45;;
22439;SDS011;11387;51.612;7.210;2022-08-03T02:02:18;8.77;;;3.88;;
22439;SDS011;11387;51.612;7.210;2022-08-03T02:05:34;4.47;;;2.65;;
22439;SDS011;11387;51.612;7.210;2022-08-03T02:08:37;7.10;;;3.13;;
22439;SDS011;11387;51.612;7.210;2022-08-03T02:11:40;4.93;;;3.03;;
22439;SDS011;11387;51.612;7.210;2022-08-03T02:14:44;5.50;;;2.97;;
22439;SDS011;11387;51.612;7.210;2022-08-03T02:17:48;5.93;;;2.90;;
22439;SDS011;11387;51.612;7.210;2022-08-03T02:20:51;6.65;;;2.85;;
22439;SDS011;11387;51.612;7.210;2022-08-03T02:23:54;7.00;;;2.60;;
22439;SDS011;11387;51.612;7.210;2022-08-03T02:26:57;6.95;;;3.28;;
22439;SDS011;11387;51.612;7.210;2022-08-03T02:30:01;4.82;;;3.25;;
22439;SDS011;11387;51.612;7.210;2022-08-03T02:33:06;6.28;;;2.78;;
22439;SDS011;11387;51.612;7.210;2022-08-03T02:36:10;4.20;;;2.53;;
22439;SDS011;11387;51.612;7.210;2022-08-03T02:39:16;5.30;;;2.95;;
22439;SDS011;11387;51.612;7.210;2022-08-03T02:42:21;4.35;;;2.85;;
22439;SDS011;11387;51.612;7.210;2022-08-03T02:45:25;4.80;;;2.67;;
22439;SDS011;11387;51.612;7.210;2022-08-03T02:48:29;5.13;;;3.20;;
22439;SDS011;11387;51.612;7.210;2022-08-03T02:51:34;6.28;;;3.10;;
22439;SDS011;11387;51.612;7.210;2022-08-03T02:54:37;5.03;;;3.00;;
22439;SDS011;11387;51.612;7.210;2022-08-03T02:57:41;5.90;;;2.95;;
22439;SDS011;11387;51.612;7.210;2022-08-03T03:00:44;6.15;;;3.03;;
22439;SDS011;11387;51.612;7.210;2022-08-03T03:03:49;7.07;;;3.05;;
22439;SDS011;11387;51.612;7.210;2022-08-03T03:06:53;6.45;;;3.10;;
22439;SDS011;11387;51.612;7.210;2022-08-03T03:09:56;5.65;;;2.88;;
22439;SDS011;11387;51.612;7.210;2022-08-03T03:12:58;6.07;;;3.17;;
22439;SDS011;11387;51.612;7.210;2022-08-03T03:16:02;7.68;;;3.03;;
22439;SDS011;11387;51.612;7.210;2022-08-03T03:19:07;6.15;;;2.85;;
22439;SDS011;11387;51.612;7.210;2022-08-03T03:22:10;5.90;;;3.20;;
22439;SDS011;11387;51.612;7.210;2022-08-03T03:25:14;5.32;;;3.10;;
22439;SDS011;11387;51.612;7.210;2022-08-03T03:28:17;5.25;;;3.30;;
22439;SDS011;11387;51.612;7.210;2022-08-03T03:31:20;6.28;;;3.17;;
22439;SDS011;11387;51.612;7.210;2022-08-03T03:34:24;7.28;;;3.15;;
22439;SDS011;11387;51.612;7.210;2022-08-03T03:37:29;5.90;;;3.03;;
22439;SDS011;11387;51.612;7.210;2022-08-03T03:40:35;4.93;;;3.10;;
22439;SDS011;11387;51.612;7.210;2022-08-03T03:52:54;6.95;;;4.03;;
22439;SDS011;11387;51.612;7.210;2022-08-03T03:55:56;8.02;;;3.28;;
22439;SDS011;11387;51.612;7.210;2022-08-03T03:59:03;8.00;;;3.15;;
22439;SDS011;11387;51.612;7.210;2022-08-03T04:02:06;7.10;;;3.45;;
22439;SDS011;11387;51.612;7.210;2022-08-03T04:05:09;8.52;;;3.85;;
22439;SDS011;11387;51.612;7.210;2022-08-03T04:08:30;5.57;;;3.15;;
22439;SDS011;11387;51.612;7.210;2022-08-03T04:11:51;8.40;;;2.97;;
22439;SDS011;11387;51.612;7.210;2022-08-03T04:14:55;5.47;;;3.23;;
22439;SDS011;11387;51.612;7.210;2022-08-03T04:21:02;6.90;;;3.17;;
22439;SDS011;11387;51.612;7.210;2022-08-03T04:24:07;7.25;;;3.47;;
22439;SDS011;11387;51.612;7.210;2022-08-03T04:27:11;8.95;;;3.80;;
22439;SDS011;11387;51.612;7.210;2022-08-03T04:30:15;10.07;;;3.42;;
22439;SDS011;11387;51.612;7.210;2022-08-03T04:33:18;8.75;;;3.10;;
22439;SDS011;11387;51.612;7.210;2022-08-03T04:36:24;8.90;;;3.60;;
22439;SDS011;11387;51.612;7.210;2022-08-03T04:39:30;6.22;;;3.35;;
22439;SDS011;11387;51.612;7.210;2022-08-03T04:42:33;4.90;;;2.90;;
22439;SDS011;11387;51.612;7.210;2022-08-03T04:45:37;11.10;;;3.58;;
22439;SDS011;11387;51.612;7.210;2022-08-03T04:48:40;14.35;;;4.13;;
22439;SDS011;11387;51.612;7.210;2022-08-03T04:51:45;32.55;;;8.93;;
22439;SDS011;11387;51.612;7.210;2022-08-03T04:54:49;27.00;;;7.30;;
22439;SDS011;11387;51.612;7.210;2022-08-03T04:57:53;19.80;;;6.07;;
22439;SDS011;11387;51.612;7.210;2022-08-03T05:00:55;8.65;;;3.53;;
22439;SDS011;11387;51.612;7.210;2022-08-03T05:03:58;8.70;;;3.92;;
22439;SDS011;11387;51.612;7.210;2022-08-03T05:07:01;9.45;;;4.05;;
22439;SDS011;11387;51.612;7.210;2022-08-03T05:10:14;9.85;;;4.45;;
22439;SDS011;11387;51.612;7.210;2022-08-03T05:13:17;9.10;;;3.92;;
22439;SDS011;11387;51.612;7.210;2022-08-03T05:16:20;9.73;;;4.70;;
22439;SDS011;11387;51.612;7.210;2022-08-03T05:19:22;13.15;;;4.13;;
22439;SDS011;11387;51.612;7.210;2022-08-03T05:22:25;18.35;;;7.13;;
22439;SDS011;11387;51.612;7.210;2022-08-03T05:25:29;9.02;;;4.85;;
22439;SDS011;11387;51.612;7.210;2022-08-03T05:28:32;11.98;;;4.95;;
22439;SDS011;11387;51.612;7.210;2022-08-03T05:31:35;11.25;;;4.22;;
22439;SDS011;11387;51.612;7.210;2022-08-03T05:34:38;11.02;;;4.05;;
22439;SDS011;11387;51.612;7.210;2022-08-03T05:37:41;7.80;;;3.63;;
22439;SDS011;11387;51.612;7.210;2022-08-03T05:40:56;11.27;;;4.40;;
22439;SDS011;11387;51.612;7.210;2022-08-03T05:44:19;12.37;;;4.70;;
22439;SDS011;11387;51.612;7.210;2022-08-03T05:47:22;7.90;;;4.32;;
22439;SDS011;11387;51.612;7.210;2022-08-03T05:50:25;14.93;;;4.90;;
22439;SDS011;11387;51.612;7.210;2022-08-03T05:53:27;11.18;;;3.58;;
22439;SDS011;11387;51.612;7.210;2022-08-03T05:56:31;19.42;;;8.27;;
22439;SDS011;11387;51.612;7.210;2022-08-03T05:59:34;9.73;;;5.28;;
22439;SDS011;11387;51.612;7.210;2022-08-03T06:02:39;11.82;;;4.97;;
22439;SDS011;11387;51.612;7.210;2022-08-03T06:05:42;9.93;;;3.67;;
22439;SDS011;11387;51.612;7.210;2022-08-03T06:09:00;10.82;;;4.20;;
22439;SDS011;11387;51.612;7.210;2022-08-03T06:12:05;7.82;;;4.18;;
22439;SDS011;11387;51.612;7.210;2022-08-03T06:15:14;9.35;;;4.07;;
22439;SDS011;11387;51.612;7.210;2022-08-03T06:18:17;10.55;;;3.92;;
22439;SDS011;11387;51.612;7.210;2022-08-03T06:21:20;10.38;;;3.63;;
22439;SDS011;11387;51.612;7.210;2022-08-03T06:24:23;38.50;;;10.55;;
22439;SDS011;11387;51.612;7.210;2022-08-03T06:27:27;11.68;;;4.18;;
22439;SDS011;11387;51.612;7.210;2022-08-03T06:30:38;17.25;;;5.55;;
22439;SDS011;11387;51.612;7.210;2022-08-03T06:33:40;14.80;;;3.65;;
22439;SDS011;11387;51.612;7.210;2022-08-03T06:37:03;8.50;;;3.40;;
22439;SDS011;11387;51.612;7.210;2022-08-03T06:40:06;11.43;;;3.78;;
22439;SDS011;11387;51.612;7.210;2022-08-03T06:43:15;10.30;;;3.50;;
22439;SDS011;11387;51.612;7.210;2022-08-03T06:46:18;8.98;;;3.42;;
22439;SDS011;11387;51.612;7.210;2022-08-03T06:49:20;10.30;;;3.33;;
22439;SDS011;11387;51.612;7.210;2022-08-03T06:52:23;9.18;;;3.38;;
22439;SDS011;11387;51.612;7.210;2022-08-03T06:55:38;8.05;;;3.63;;
22439;SDS011;11387;51.612;7.210;2022-08-03T06:58:44;8.57;;;3.40;;
22439;SDS011;11387;51.612;7.210;2022-08-03T07:01:47;10.40;;;3.45;;
22439;SDS011;11387;51.612;7.210;2022-08-03T07:04:53;9.45;;;3.00;;
22439;SDS011;11387;51.612;7.210;2022-08-03T07:07:57;8.82;;;3.38;;
22439;SDS011;11387;51.612;7.210;2022-08-03T07:11:02;27.50;;;4.15;;
22439;SDS011;11387;51.612;7.210;2022-08-03T07:14:06;7.88;;;3.30;;
22439;SDS011;11387;51.612;7.210;2022-08-03T07:17:08;12.35;;;3.72;;
22439;SDS011;11387;51.612;7.210;2022-08-03T07:20:12;12.65;;;3.45;;
22439;SDS011;11387;51.612;7.210;2022-08-03T07:23:15;7.20;;;2.80;;
22439;SDS011;11387;51.612;7.210;2022-08-03T07:26:19;11.43;;;3.13;;
22439;SDS011;11387;51.612;7.210;2022-08-03T07:29:23;7.20;;;2.95;;
22439;SDS011;11387;51.612;7.210;2022-08-03T07:32:26;8.05;;;3.22;;
22439;SDS011;11387;51.612;7.210;2022-08-03T07:35:31;7.75;;;3.38;;
22439;SDS011;11387;51.612;7.210;2022-08-03T07:38:34;7.00;;;2.65;;
22439;SDS011;11387;51.612;7.210;2022-08-03T07:41:37;14.70;;;3.88;;
22439;SDS011;11387;51.612;7.210;2022-08-03T07:44:43;7.60;;;2.83;;
22439;SDS011;11387;51.612;7.210;2022-08-03T07:47:46;10.15;;;4.03;;
22439;SDS011;11387;51.612;7.210;2022-08-03T07:50:54;7.75;;;2.60;;
22439;SDS011;11387;51.612;7.210;2022-08-03T07:53:56;8.68;;;2.53;;
22439;SDS011;11387;51.612;7.210;2022-08-03T07:57:01;10.25;;;2.25;;
22439;SDS011;11387;51.612;7.210;2022-08-03T08:00:06;8.52;;;2.80;;
22439;SDS011;11387;51.612;7.210;2022-08-03T08:03:13;5.88;;;2.00;;
22439;SDS011;11387;51.612;7.210;2022-08-03T08:06:16;8.13;;;1.90;;
22439;SDS011;11387;51.612;7.210;2022-08-03T08:09:19;8.10;;;2.73;;
22439;SDS011;11387;51.612;7.210;2022-08-03T08:12:22;5.32;;;1.95;;
22439;SDS011;11387;51.612;7.210;2022-08-03T08:15:26;5.40;;;2.03;;
22439;SDS011;11387;51.612;7.210;2022-08-03T08:18:29;9.70;;;2.95;;
22439;SDS011;11387;51.612;7.210;2022-08-03T08:21:32;8.27;;;2.10;;
22439;SDS011;11387;51.612;7.210;2022-08-03T08:24:54;5.03;;;1.67;;
22439;SDS011;11387;51.612;7.210;2022-08-03T08:27:57;10.63;;;1.55;;
22439;SDS011;11387;51.612;7.210;2022-08-03T08:31:23;5.18;;;1.80;;
22439;SDS011;11387;51.612;7.210;2022-08-03T08:34:26;7.03;;;1.88;;
22439;SDS011;11387;51.612;7.210;2022-08-03T08:37:32;4.18;;;1.77;;
22439;SDS011;11387;51.612;7.210;2022-08-03T08:40:35;5.57;;;1.60;;
22439;SDS011;11387;51.612;7.210;2022-08-03T08:43:37;3.17;;;1.77;;
22439;SDS011;11387;51.612;7.210;2022-08-03T08:46:41;4.60;;;2.08;;
22439;SDS011;11387;51.612;7.210;2022-08-03T08:49:45;6.70;;;2.13;;
22439;SDS011;11387;51.612;7.210;2022-08-03T08:53:08;4.35;;;2.20;;
22439;SDS011;11387;51.612;7.210;2022-08-03T08:56:21;3.90;;;1.52;;
22439;SDS011;11387;51.612;7.210;2022-08-03T08:59:25;2.30;;;1.33;;
22439;SDS011;11387;51.612;7.210;2022-08-03T09:02:49;6.70;;;1.90;;
22439;SDS011;11387;51.612;7.210;2022-08-03T09:05:52;13.52;;;1.63;;
22439;SDS011;11387;51.612;7.210;2022-08-03T09:08:56;5.60;;;1.55;;
22439;SDS011;11387;51.612;7.210;2022-08-03T09:11:59;3.10;;;1.70;;
22439;SDS011;11387;51.612;7.210;2022-08-03T09:15:22;3.72;;;1.75;;
22439;SDS011;11387;51.612;7.210;2022-08-03T09:18:28;4.00;;;1.52;;
22439;SDS011;11387;51.612;7.210;2022-08-03T09:21:33;5.72;;;2.13;;
22439;SDS011;11387;51.612;7.210;2022-08-03T09:24:36;4.90;;;1.90;;
22439;SDS011;11387;51.612;7.210;2022-08-03T09:27:42;5.20;;;1.55;;
22439;SDS011;11387;51.612;7.210;2022-08-03T09:30:57;6.80;;;1.77;;
22439;SDS011;11387;51.612;7.210;2022-08-03T09:34:02;7.30;;;2.25;;
22439;SDS011;11387;51.612;7.210;2022-08-03T09:37:07;7.13;;;1.65;;
22439;SDS011;11387;51.612;7.210;2022-08-03T09:40:14;8.52;;;1.80;;
22439;SDS011;11387;51.612;7.210;2022-08-03T09:43:40;3.38;;;1.60;;
22439;SDS011;11387;51.612;7.210;2022-08-03T09:46:47;7.88;;;2.05;;
22439;SDS011;11387;51.612;7.210;2022-08-03T09:49:56;4.75;;;1.88;;
22439;SDS011;11387;51.612;7.210;2022-08-03T09:53:01;13.10;;;2.50;;
22439;SDS011;11387;51.612;7.210;2022-08-03T09:56:04;17.42;;;2.47;;
22439;SDS011;11387;51.612;7.210;2022-08-03T10:06:17;4.45;;;1.60;;
22439;SDS011;11387;51.612;7.210;2022-08-03T10:09:20;5.13;;;1.90;;
22439;SDS011;11387;51.612;7.210;2022-08-03T10:12:24;4.03;;;1.60;;
22439;SDS011;11387;51.612;7.210;2022-08-03T10:15:27;2.30;;;1.50;;
22439;SDS011;11387;51.612;7.210;2022-08-03T10:18:50;6.00;;;2.08;;
22439;SDS011;11387;51.612;7.210;2022-08-03T10:21:56;7.83;;;1.80;;
22439;SDS011;11387;51.612;7.210;2022-08-03T10:24:59;4.05;;;1.63;;
22439;SDS011;11387;51.612;7.210;2022-08-03T10:28:03;4.60;;;2.13;;
22439;SDS011;11387;51.612;7.210;2022-08-03T10:34:10;4.78;;;2.22;;
22439;SDS011;11387;51.612;7.210;2022-08-03T10:37:16;7.15;;;1.90;;
22439;SDS011;11387;51.612;7.210;2022-08-03T10:40:21;5.40;;;1.60;;
22439;SDS011;11387;51.612;7.210;2022-08-03T10:43:44;5.63;;;2.55;;
22439;SDS011;11387;51.612;7.210;2022-08-03T10:46:49;11.02;;;1.90;;
22439;SDS011;11387;51.612;7.210;2022-08-03T10:49:52;7.72;;;1.75;;
22439;SDS011;11387;51.612;7.210;2022-08-03T10:52:56;5.17;;;1.20;;
22439;SDS011;11387;51.612;7.210;2022-08-03T10:56:04;6.07;;;2.05;;
22439;SDS011;11387;51.612;7.210;2022-08-03T11:03:09;5.72;;;1.88;;
22439;SDS011;11387;51.612;7.210;2022-08-03T11:06:15;7.22;;;1.80;;
22439;SDS011;11387;51.612;7.210;2022-08-03T11:09:20;7.65;;;1.55;;
22439;SDS011;11387;51.612;7.210;2022-08-03T11:12:24;8.30;;;1.85;;
22439;SDS011;11387;51.612;7.210;2022-08-03T11:15:32;8.75;;;2.40;;
22439;SDS011;11387;51.612;7.210;2022-08-03T11:18:36;6.45;;;1.90;;
22439;SDS011;11387;51.612;7.210;2022-08-03T11:21:57;9.05;;;2.20;;
22439;SDS011;11387;51.612;7.210;2022-08-03T11:25:01;7.53;;;1.63;;
22439;SDS011;11387;51.612;7.210;2022-08-03T11:28:24;8.85;;;2.10;;
22439;SDS011;11387;51.612;7.210;2022-08-03T11:31:43;6.10;;;1.90;;
22439;SDS011;11387;51.612;7.210;2022-08-03T11:35:06;6.60;;;2.05;;
22439;SDS011;11387;51.612;7.210;2022-08-03T11:38:09;6.22;;;1.90;;
22439;SDS011;11387;51.612;7.210;2022-08-03T11:41:21;5.82;;;1.92;;
22439;SDS011;11387;51.612;7.210;2022-08-03T11:44:45;5.72;;;1.80;;
22439;SDS011;11387;51.612;7.210;2022-08-03T11:50:51;5.32;;;1.67;;
22439;SDS011;11387;51.612;7.210;2022-08-03T11:53:55;9.25;;;1.60;;
22439;SDS011;11387;51.612;7.210;2022-08-03T11:56:59;6.65;;;1.67;;
22439;SDS011;11387;51.612;7.210;2022-08-03T12:00:17;4.20;;;1.55;;
22439;SDS011;11387;51.612;7.210;2022-08-03T12:03:21;5.70;;;1.35;;
22439;SDS011;11387;51.612;7.210;2022-08-03T12:06:24;8.68;;;1.77;;
22439;SDS011;11387;51.612;7.210;2022-08-03T12:09:27;5.72;;;1.30;;
22439;SDS011;11387;51.612;7.210;2022-08-03T12:12:31;5.68;;;1.58;;
22439;SDS011;11387;51.612;7.210;2022-08-03T12:15:34;9.75;;;1.65;;
22439;SDS011;11387;51.612;7.210;2022-08-03T12:18:36;10.20;;;1.90;;
22439;SDS011;11387;51.612;7.210;2022-08-03T12:21:44;7.28;;;1.60;;
22439;SDS011;11387;51.612;7.210;2022-08-03T12:24:57;5.70;;;1.63;;
22439;SDS011;11387;51.612;7.210;2022-08-03T12:28:08;5.55;;;2.10;;
22439;SDS011;11387;51.612;7.210;2022-08-03T12:31:31;11.82;;;2.22;;
22439;SDS011;11387;51.612;7.210;2022-08-03T12:34:46;5.38;;;1.25;;
22439;SDS011;11387;51.612;7.210;2022-08-03T12:37:49;5.18;;;1.20;;
22439;SDS011;11387;51.612;7.210;2022-08-03T12:40:58;5.57;;;1.48;;
22439;SDS011;11387;51.612;7.210;2022-08-03T12:44:02;6.03;;;1.60;;
22439;SDS011;11387;51.612;7.210;2022-08-03T12:47:05;10.70;;;1.92;;
22439;SDS011;11387;51.612;7.210;2022-08-03T12:50:22;5.80;;;1.40;;
22439;SDS011;11387;51.612;7.210;2022-08-03T12:53:27;6.18;;;1.75;;
22439;SDS011;11387;51.612;7.210;2022-08-03T12:56:30;7.18;;;1.52;;
22439;SDS011;11387;51.612;7.210;2022-08-03T12:59:34;4.45;;;1.50;;
22439;SDS011;11387;51.612;7.210;2022-08-03T13:02:41;5.18;;;1.27;;
22439;SDS011;11387;51.612;7.210;2022-08-03T13:05:46;8.25;;;1.85;;
22439;SDS011;11387;51.612;7.210;2022-08-03T13:08:59;7.72;;;1.80;;
22439;SDS011;11387;51.612;7.210;2022-08-03T13:12:06;7.35;;;1.45;;
22439;SDS011;11387;51.612;7.210;2022-08-03T13:15:11;3.00;;;1.25;;
22439;SDS011;11387;51.612;7.210;2022-08-03T13:18:13;3.58;;;1.17;;
22439;SDS011;11387;51.612;7.210;2022-08-03T13:21:18;3.58;;;1.10;;
22439;SDS011;11387;51.612;7.210;2022-08-03T13:24:21;9.63;;;1.77;;
22439;SDS011;11387;51.612;7.210;2022-08-03T13:27:23;4.30;;;1.42;;
22439;SDS011;11387;51.612;7.210;2022-08-03T13:30:48;5.13;;;1.58;;
22439;SDS011;11387;51.612;7.210;2022-08-03T13:33:50;6.47;;;2.13;;
22439;SDS011;11387;51.612;7.210;2022-08-03T13:36:56;5.53;;;1.52;;
22439;SDS011;11387;51.612;7.210;2022-08-03T13:40:10;7.80;;;1.40;;
22439;SDS011;11387;51.612;7.210;2022-08-03T13:43:15;4.68;;;1.35;;
22439;SDS011;11387;51.612;7.210;2022-08-03T13:46:19;2.27;;;1.40;;
22439;SDS011;11387;51.612;7.210;2022-08-03T13:49:23;7.13;;;1.48;;
22439;SDS011;11387;51.612;7.210;2022-08-03T13:52:27;3.92;;;1.40;;
22439;SDS011;11387;51.612;7.210;2022-08-03T13:55:30;7.03;;;2.00;;
22439;SDS011;11387;51.612;7.210;2022-08-03T13:58:33;6.75;;;1.50;;
22439;SDS011;11387;51.612;7.210;2022-08-03T14:01:37;5.07;;;1.95;;
22439;SDS011;11387;51.612;7.210;2022-08-03T14:04:56;4.18;;;1.80;;
22439;SDS011;11387;51.612;7.210;2022-08-03T14:07:58;7.53;;;1.98;;
22439;SDS011;11387;51.612;7.210;2022-08-03T14:11:05;4.35;;;1.33;;
22439;SDS011;11387;51.612;7.210;2022-08-03T14:14:07;8.17;;;1.60;;
22439;SDS011;11387;51.612;7.210;2022-08-03T14:17:11;7.13;;;1.70;;
22439;SDS011;11387;51.612;7.210;2022-08-03T14:20:16;5.93;;;1.42;;
22439;SDS011;11387;51.612;7.210;2022-08-03T14:23:39;4.97;;;1.60;;
22439;SDS011;11387;51.612;7.210;2022-08-03T14:26:42;4.93;;;1.40;;
22439;SDS011;11387;51.612;7.210;2022-08-03T14:29:44;1.23;;;1.00;;
22439;SDS011;11387;51.612;7.210;2022-08-03T14:32:48;5.13;;;1.40;;
22439;SDS011;11387;51.612;7.210;2022-08-03T14:35:51;3.90;;;1.30;;
22439;SDS011;11387;51.612;7.210;2022-08-03T14:38:54;5.10;;;2.47;;
22439;SDS011;11387;51.612;7.210;2022-08-03T14:42:01;4.78;;;1.20;;
22439;SDS011;11387;51.612;7.210;2022-08-03T14:45:04;7.70;;;1.90;;
22439;SDS011;11387;51.612;7.210;2022-08-03T14:48:22;6.25;;;1.40;;
22439;SDS011;11387;51.612;7.210;2022-08-03T14:51:45;6.03;;;1.67;;
22439;SDS011;11387;51.612;7.210;2022-08-03T14:54:54;5.93;;;1.48;;
22439;SDS011;11387;51.612;7.210;2022-08-03T14:57:56;5.50;;;1.67;;
22439;SDS011;11387;51.612;7.210;2022-08-03T15:01:00;4.40;;;1.48;;
22439;SDS011;11387;51.612;7.210;2022-08-03T15:04:24;3.92;;;1.08;;
22439;SDS011;11387;51.612;7.210;2022-08-03T15:07:27;8.57;;;1.50;;
22439;SDS011;11387;51.612;7.210;2022-08-03T15:10:29;4.70;;;1.30;;
22439;SDS011;11387;51.612;7.210;2022-08-03T15:13:44;10.20;;;1.63;;
22439;SDS011;11387;51.612;7.210;2022-08-03T15:16:47;3.40;;;1.25;;
22439;SDS011;11387;51.612;7.210;2022-08-03T15:19:51;5.78;;;1.75;;
22439;SDS011;11387;51.612;7.210;2022-08-03T15:23:09;3.47;;;1.38;;
22439;SDS011;11387;51.612;7.210;2022-08-03T15:26:11;5.20;;;1.13;;
22439;SDS011;11387;51.612;7.210;2022-08-03T15:29:34;4.00;;;1.25;;
22439;SDS011;11387;51.612;7.210;2022-08-03T15:32:56;3.53;;;1.35;;
22439;SDS011;11387;51.612;7.210;2022-08-03T15:36:00;6.18;;;1.40;;
22439;SDS011;11387;51.612;7.210;2022-08-03T15:42:05;4.13;;;1.20;;
22439;SDS011;11387;51.612;7.210;2022-08-03T15:45:08;3.80;;;1.10;;
22439;SDS011;11387;51.612;7.210;2022-08-03T15:48:13;5.47;;;1.58;;
22439;SDS011;11387;51.612;7.210;2022-08-03T15:51:17;6.38;;;1.60;;
22439;SDS011;11387;51.612;7.210;2022-08-03T15:57:22;7.22;;;1.50;;
22439;SDS011;11387;51.612;7.210;2022-08-03T16:00:24;11.00;;;1.40;;
22439;SDS011;11387;51.612;7.210;2022-08-03T16:03:34;5.07;;;1.13;;
22439;SDS011;11387;51.612;7.210;2022-08-03T16:06:38;7.70;;;0.90;;
22439;SDS011;11387;51.612;7.210;2022-08-03T16:12:44;6.15;;;1.10;;
22439;SDS011;11387;51.612;7.210;2022-08-03T16:15:47;3.53;;;1.10;;
22439;SDS011;11387;51.612;7.210;2022-08-03T16:18:49;7.38;;;1.00;;
22439;SDS011;11387;51.612;7.210;2022-08-03T16:21:53;2.55;;;0.90;;
22439;SDS011;11387;51.612;7.210;2022-08-03T16:24:57;7.10;;;1.05;;
22439;SDS011;11387;51.612;7.210;2022-08-03T16:27:59;3.17;;;0.93;;
22439;SDS011;11387;51.612;7.210;2022-08-03T16:31:13;5.57;;;0.80;;
22439;SDS011;11387;51.612;7.210;2022-08-03T16:34:15;4.93;;;0.90;;
22439;SDS011;11387;51.612;7.210;2022-08-03T16:37:20;6.72;;;1.27;;
22439;SDS011;11387;51.612;7.210;2022-08-03T16:40:39;6.65;;;1.00;;
22439;SDS011;11387;51.612;7.210;2022-08-03T16:43:41;4.13;;;1.17;;
22439;SDS011;11387;51.612;7.210;2022-08-03T16:46:44;3.67;;;0.90;;
22439;SDS011;11387;51.612;7.210;2022-08-03T16:49:48;6.53;;;1.48;;
22439;SDS011;11387;51.612;7.210;2022-08-03T16:52:57;5.72;;;2.03;;
22439;SDS011;11387;51.612;7.210;2022-08-03T16:56:02;5.65;;;1.17;;
22439;SDS011;11387;51.612;7.210;2022-08-03T16:59:10;3.78;;;1.40;;
22439;SDS011;11387;51.612;7.210;2022-08-03T17:02:19;6.82;;;1.67;;
22439;SDS011;11387;51.612;7.210;2022-08-03T17:05:26;6.28;;;1.27;;
22439;SDS011;11387;51.612;7.210;2022-08-03T17:08:49;8.25;;;1.23;;
22439;SDS011;11387;51.612;7.210;2022-08-03T17:11:56;4.95;;;1.67;;
22439;SDS011;11387;51.612;7.210;2022-08-03T17:15:00;4.55;;;0.85;;
22439;SDS011;11387;51.612;7.210;2022-08-03T17:21:07;4.68;;;1.10;;
22439;SDS011;11387;51.612;7.210;2022-08-03T17:24:12;9.95;;;1.38;;
22439;SDS011;11387;51.612;7.210;2022-08-03T17:27:21;6.43;;;0.75;;
22439;SDS011;11387;51.612;7.210;2022-08-03T17:30:46;2.83;;;1.10;;
22439;SDS011;11387;51.612;7.210;2022-08-03T17:34:26;14.68;;;8.07;;
22439;SDS011;11387;51.612;7.210;2022-08-03T17:37:29;11.15;;;3.10;;
22439;SDS011;11387;51.612;7.210;2022-08-03T17:40:54;4.38;;;1.20;;
22439;SDS011;11387;51.612;7.210;2022-08-03T17:43:57;4.40;;;1.15;;
22439;SDS011;11387;51.612;7.210;2022-08-03T17:47:20;3.60;;;0.98;;
22439;SDS011;11387;51.612;7.210;2022-08-03T17:50:32;3.50;;;1.15;;
22439;SDS011;11387;51.612;7.210;2022-08-03T17:53:36;7.50;;;1.33;;
22439;SDS011;11387;51.612;7.210;2022-08-03T17:56:42;4.80;;;0.82;;
22439;SDS011;11387;51.612;7.210;2022-08-03T17:59:49;7.28;;;1.42;;
22439;SDS011;11387;51.612;7.210;2022-08-03T18:02:57;3.47;;;1.17;;
22439;SDS011;11387;51.612;7.210;2022-08-03T18:06:18;5.63;;;1.38;;
22439;SDS011;11387;51.612;7.210;2022-08-03T18:09:29;5.60;;;1.98;;
22439;SDS011;11387;51.612;7.210;2022-08-03T18:12:56;3.70;;;1.02;;
22439;SDS011;11387;51.612;7.210;2022-08-03T18:16:00;3.75;;;0.95;;
22439;SDS011;11387;51.612;7.210;2022-08-03T18:19:04;4.60;;;1.20;;
22439;SDS011;11387;51.612;7.210;2022-08-03T18:22:10;4.88;;;1.55;;
22439;SDS011;11387;51.612;7.210;2022-08-03T18:25:13;2.80;;;0.90;;
22439;SDS011;11387;51.612;7.210;2022-08-03T18:28:17;5.35;;;1.15;;
22439;SDS011;11387;51.612;7.210;2022-08-03T18:31:23;6.75;;;1.17;;
22439;SDS011;11387;51.612;7.210;2022-08-03T18:34:46;3.78;;;1.10;;
22439;SDS011;11387;51.612;7.210;2022-08-03T18:37:54;5.18;;;1.27;;
22439;SDS011;11387;51.612;7.210;2022-08-03T18:41:01;5.30;;;1.08;;
22439;SDS011;11387;51.612;7.210;2022-08-03T18:44:25;5.63;;;0.98;;
22439;SDS011;11387;51.612;7.210;2022-08-03T18:47:54;7.57;;;1.38;;
22439;SDS011;11387;51.612;7.210;2022-08-03T18:50:58;5.00;;;1.08;;
22439;SDS011;11387;51.612;7.210;2022-08-03T18:54:10;5.93;;;1.10;;
22439;SDS011;11387;51.612;7.210;2022-08-03T18:57:36;6.57;;;1.33;;
22439;SDS011;11387;51.612;7.210;2022-08-03T19:00:57;6.85;;;1.50;;
22439;SDS011;11387;51.612;7.210;2022-08-03T19:04:03;7.70;;;1.13;;
22439;SDS011;11387;51.612;7.210;2022-08-03T19:07:13;5.75;;;1.77;;
22439;SDS011;11387;51.612;7.210;2022-08-03T19:10:23;9.90;;;2.22;;
22439;SDS011;11387;51.612;7.210;2022-08-03T19:13:28;9.18;;;1.75;;
22439;SDS011;11387;51.612;7.210;2022-08-03T19:16:38;11.20;;;1.77;;
22439;SDS011;11387;51.612;7.210;2022-08-03T19:19:43;13.55;;;1.30;;
22439;SDS011;11387;51.612;7.210;2022-08-03T19:22:46;13.77;;;2.97;;
22439;SDS011;11387;51.612;7.210;2022-08-03T19:25:51;8.30;;;1.38;;